sensor_id;sensor_type;location;lat;lon;timestamp;temperature;humidity
13673;DHT22;6909;52.202;9.876;2024-01-15T00:01:12;1.20;99.90
13673;DHT22;6909;52.202;9.876;2024-01-15T00:03:38;1.20;99.90
13673;DHT22;6909;52.202;9.876;2024-01-15T00:06:05;1.10;99.90
13673;DHT22;6909;52.202;9.876;2024-01-15T00:08:32;1.10;99.90
13673;DHT22;6909;52.202;9.876;2024-01-15T00:10:59;1.10;99.90
13673;DHT22;6909;52.202;9.876;2024-01-15T00:13:27;1.10;99.90
13673;DHT22;6909;52.202;9.876;2024-01-15T00:15:53;1.10;99.90
13673;DHT22;6909;52.202;9.876;2024-01-15T00:18:20;1.00;99.90
13673;DHT22;6909;52.202;9.876;2024-01-15T00:20:47;1.00;99.90
13673;DHT22;6909;52.202;9.876;2024-01-15T00:23:13;1.00;99.90
13673;DHT22;6909;52.202;9.876;2024-01-15T00:25:41;1.00;99.90
13673;DHT22;6909;52.202;9.876;2024-01-15T00:28:07;1.00;99.90
13673;DHT22;6909;52.202;9.876;2024-01-15T00:30:35;1.10;99.90
13673;DHT22;6909;52.202;9.876;2024-01-15T00:33:02;1.00;99.90
13673;DHT22;6909;52.202;9.876;2024-01-15T00:35:29;1.00;99.90
13673;DHT22;6909;52.202;9.876;2024-01-15T00:37:56;1.00;99.90
13673;DHT22;6909;52.202;9.876;2024-01-15T00:40:22;0.90;99.90
13673;DHT22;6909;52.202;9.876;2024-01-15T00:42:50;1.00;99.90
13673;DHT22;6909;52.202;9.876;2024-01-15T00:45:17;1.10;99.90
13673;DHT22;6909;52.202;9.876;2024-01-15T00:47:45;1.20;99.90
13673;DHT22;6909;52.202;9.876;2024-01-15T00:50:12;1.20;99.90
13673;DHT22;6909;52.202;9.876;2024-01-15T00:52:38;1.30;99.90
13673;DHT22;6909;52.202;9.876;2024-01-15T00:55:06;1.20;99.90
13673;DHT22;6909;52.202;9.876;2024-01-15T00:57:32;1.10;99.90
13673;DHT22;6909;52.202;9.876;2024-01-15T00:59:59;1.10;99.90
13673;DHT22;6909;52.202;9.876;2024-01-15T01:02:26;1.00;99.90
13673;DHT22;6909;52.202;9.876;2024-01-15T01:04:54;1.00;99.90
13673;DHT22;6909;52.202;9.876;2024-01-15T01:07:20;0.90;99.90
13673;DHT22;6909;52.202;9.876;2024-01-15T01:09:47;0.90;99.90
13673;DHT22;6909;52.202;9.876;2024-01-15T01:12:14;0.90;99.90
13673;DHT22;6909;52.202;9.876;2024-01-15T01:14:41;0.90;99.90
13673;DHT22;6909;52.202;9.876;2024-01-15T01:17:08;0.90;99.90
13673;DHT22;6909;52.202;9.876;2024-01-15T01:19:34;0.90;99.90
13673;DHT22;6909;52.202;9.876;2024-01-15T01:22:02;0.90;99.90
13673;DHT22;6909;52.202;9.876;2024-01-15T01:24:29;1.00;99.90
13673;DHT22;6909;52.202;9.876;2024-01-15T01:26:56;1.00;99.90
13673;DHT22;6909;52.202;9.876;2024-01-15T01:29:22;1.00;99.90
13673;DHT22;6909;52.202;9.876;2024-01-15T01:31:49;0.90;99.90
13673;DHT22;6909;52.202;9.876;2024-01-15T01:34:16;1.00;99.90
13673;DHT22;6909;52.202;9.876;2024-01-15T01:36:43;1.00;99.90
13673;DHT22;6909;52.202;9.876;2024-01-15T01:39:11;1.00;99.90
13673;DHT22;6909;52.202;9.876;2024-01-15T01:41:38;1.00;99.90
13673;DHT22;6909;52.202;9.876;2024-01-15T01:44:05;1.00;99.90
13673;DHT22;6909;52.202;9.876;2024-01-15T01:46:32;1.00;99.90
13673;DHT22;6909;52.202;9.876;2024-01-15T01:49:00;1.10;99.90
13673;DHT22;6909;52.202;9.876;2024-01-15T01:51:31;1.10;99.90
13673;DHT22;6909;52.202;9.876;2024-01-15T01:53:58;1.10;99.90
13673;DHT22;6909;52.202;9.876;2024-01-15T01:56:26;1.10;99.90
13673;DHT22;6909;52.202;9.876;2024-01-15T01:58:53;1.20;99.90
13673;DHT22;6909;52.202;9.876;2024-01-15T02:01:20;1.10;99.90
13673;DHT22;6909;52.202;9.876;2024-01-15T02:03:46;1.20;99.90
13673;DHT22;6909;52.202;9.876;2024-01-15T02:06:13;1.20;99.90
13673;DHT22;6909;52.202;9.876;2024-01-15T02:08:40;1.10;99.90
13673;DHT22;6909;52.202;9.876;2024-01-15T02:11:09;1.20;99.90
13673;DHT22;6909;52.202;9.876;2024-01-15T02:13:38;1.20;99.90
13673;DHT22;6909;52.202;9.876;2024-01-15T02:16:05;1.20;99.90
13673;DHT22;6909;52.202;9.876;2024-01-15T02:18:40;1.20;99.90
13673;DHT22;6909;52.202;9.876;2024-01-15T02:21:07;1.30;99.90
13673;DHT22;6909;52.202;9.876;2024-01-15T02:23:35;1.30;99.90
13673;DHT22;6909;52.202;9.876;2024-01-15T02:26:01;1.40;99.90
13673;DHT22;6909;52.202;9.876;2024-01-15T02:28:29;1.40;99.90
13673;DHT22;6909;52.202;9.876;2024-01-15T02:30:55;1.40;99.90
13673;DHT22;6909;52.202;9.876;2024-01-15T02:36:41;1.40;99.90
13673;DHT22;6909;52.202;9.876;2024-01-15T02:39:09;1.40;99.90
13673;DHT22;6909;52.202;9.876;2024-01-15T02:41:36;1.40;99.90
13673;DHT22;6909;52.202;9.876;2024-01-15T02:44:02;1.50;99.90
13673;DHT22;6909;52.202;9.876;2024-01-15T02:46:29;1.50;99.90
13673;DHT22;6909;52.202;9.876;2024-01-15T02:48:55;1.50;99.90
13673;DHT22;6909;52.202;9.876;2024-01-15T02:51:22;1.50;99.90
13673;DHT22;6909;52.202;9.876;2024-01-15T02:53:49;1.50;99.90
13673;DHT22;6909;52.202;9.876;2024-01-15T02:56:17;1.50;99.90
13673;DHT22;6909;52.202;9.876;2024-01-15T02:58:44;1.60;99.90
13673;DHT22;6909;52.202;9.876;2024-01-15T03:01:10;1.60;99.90
13673;DHT22;6909;52.202;9.876;2024-01-15T03:03:37;1.60;99.90
13673;DHT22;6909;52.202;9.876;2024-01-15T03:06:04;1.70;99.90
13673;DHT22;6909;52.202;9.876;2024-01-15T03:08:31;1.60;99.90
13673;DHT22;6909;52.202;9.876;2024-01-15T03:10:58;1.60;99.90
13673;DHT22;6909;52.202;9.876;2024-01-15T03:13:25;1.60;99.90
13673;DHT22;6909;52.202;9.876;2024-01-15T03:15:52;1.60;99.90
13673;DHT22;6909;52.202;9.876;2024-01-15T03:18:19;1.70;99.90
13673;DHT22;6909;52.202;9.876;2024-01-15T03:20:45;1.50;99.90
13673;DHT22;6909;52.202;9.876;2024-01-15T03:23:12;1.60;99.90
13673;DHT22;6909;52.202;9.876;2024-01-15T03:25:38;1.60;99.90
13673;DHT22;6909;52.202;9.876;2024-01-15T03:28:05;1.50;99.90
13673;DHT22;6909;52.202;9.876;2024-01-15T03:30:33;1.60;99.90
13673;DHT22;6909;52.202;9.876;2024-01-15T03:33:00;1.50;99.90
13673;DHT22;6909;52.202;9.876;2024-01-15T03:35:27;1.50;99.90
13673;DHT22;6909;52.202;9.876;2024-01-15T03:37:54;1.60;99.90
13673;DHT22;6909;52.202;9.876;2024-01-15T03:40:20;1.60;99.90
13673;DHT22;6909;52.202;9.876;2024-01-15T03:42:47;1.60;99.90
13673;DHT22;6909;52.202;9.876;2024-01-15T03:45:13;1.50;99.90
13673;DHT22;6909;52.202;9.876;2024-01-15T03:47:41;1.50;99.90
13673;DHT22;6909;52.202;9.876;2024-01-15T03:50:09;1.60;99.90
13673;DHT22;6909;52.202;9.876;2024-01-15T03:52:35;1.60;99.90
13673;DHT22;6909;52.202;9.876;2024-01-15T03:55:03;1.70;99.90
13673;DHT22;6909;52.202;9.876;2024-01-15T03:57:30;1.80;99.90
13673;DHT22;6909;52.202;9.876;2024-01-15T03:59:57;1.70;99.90
13673;DHT22;6909;52.202;9.876;2024-01-15T04:02:24;1.70;99.90
13673;DHT22;6909;52.202;9.876;2024-01-15T04:04:52;1.70;99.90
13673;DHT22;6909;52.202;9.876;2024-01-15T04:07:19;1.70;99.90
13673;DHT22;6909;52.202;9.876;2024-01-15T04:09:45;1.70;99.90
13673;DHT22;6909;52.202;9.876;2024-01-15T04:12:12;1.70;99.90
13673;DHT22;6909;52.202;9.876;2024-01-15T04:14:39;1.70;99.90
13673;DHT22;6909;52.202;9.876;2024-01-15T04:17:05;1.70;99.90
13673;DHT22;6909;52.202;9.876;2024-01-15T04:19:32;1.70;99.90
13673;DHT22;6909;52.202;9.876;2024-01-15T04:22:00;1.80;99.90
13673;DHT22;6909;52.202;9.876;2024-01-15T04:24:26;1.80;99.90
13673;DHT22;6909;52.202;9.876;2024-01-15T04:26:53;1.80;99.90
13673;DHT22;6909;52.202;9.876;2024-01-15T04:29:20;1.80;99.90
13673;DHT22;6909;52.202;9.876;2024-01-15T04:31:46;1.80;99.90
13673;DHT22;6909;52.202;9.876;2024-01-15T04:34:13;1.80;99.90
13673;DHT22;6909;52.202;9.876;2024-01-15T04:36:39;1.90;99.90
13673;DHT22;6909;52.202;9.876;2024-01-15T04:39:08;1.80;99.90
13673;DHT22;6909;52.202;9.876;2024-01-15T04:41:34;1.70;99.90
13673;DHT22;6909;52.202;9.876;2024-01-15T04:44:01;1.70;99.90
13673;DHT22;6909;52.202;9.876;2024-01-15T04:46:28;1.60;99.90
13673;DHT22;6909;52.202;9.876;2024-01-15T04:48:54;1.60;99.90
13673;DHT22;6909;52.202;9.876;2024-01-15T04:51:21;1.70;99.90
13673;DHT22;6909;52.202;9.876;2024-01-15T04:53:48;1.80;99.90
13673;DHT22;6909;52.202;9.876;2024-01-15T04:56:16;1.80;99.90
13673;DHT22;6909;52.202;9.876;2024-01-15T04:58:42;1.80;99.90
13673;DHT22;6909;52.202;9.876;2024-01-15T05:01:09;1.80;99.90
13673;DHT22;6909;52.202;9.876;2024-01-15T05:03:36;1.80;99.90
13673;DHT22;6909;52.202;9.876;2024-01-15T05:06:03;1.80;99.90
13673;DHT22;6909;52.202;9.876;2024-01-15T05:08:30;1.80;99.90
13673;DHT22;6909;52.202;9.876;2024-01-15T05:10:56;1.70;99.90
13673;DHT22;6909;52.202;9.876;2024-01-15T05:13:24;1.60;99.90
13673;DHT22;6909;52.202;9.876;2024-01-15T05:15:51;1.50;99.90
13673;DHT22;6909;52.202;9.876;2024-01-15T05:18:18;1.40;99.90
13673;DHT22;6909;52.202;9.876;2024-01-15T05:20:45;1.30;99.90
13673;DHT22;6909;52.202;9.876;2024-01-15T05:23:11;1.30;99.90
13673;DHT22;6909;52.202;9.876;2024-01-15T05:25:38;1.40;99.90
13673;DHT22;6909;52.202;9.876;2024-01-15T05:28:05;1.40;99.90
13673;DHT22;6909;52.202;9.876;2024-01-15T05:30:33;1.50;99.90
13673;DHT22;6909;52.202;9.876;2024-01-15T05:33:00;1.50;99.90
13673;DHT22;6909;52.202;9.876;2024-01-15T05:35:28;1.40;99.90
13673;DHT22;6909;52.202;9.876;2024-01-15T05:37:54;1.40;99.90
13673;DHT22;6909;52.202;9.876;2024-01-15T05:40:21;1.30;99.90
13673;DHT22;6909;52.202;9.876;2024-01-15T05:42:48;1.30;99.90
13673;DHT22;6909;52.202;9.876;2024-01-15T05:45:14;1.20;99.90
13673;DHT22;6909;52.202;9.876;2024-01-15T05:47:42;1.20;99.90
13673;DHT22;6909;52.202;9.876;2024-01-15T05:50:10;1.20;99.90
13673;DHT22;6909;52.202;9.876;2024-01-15T05:52:37;1.10;99.90
13673;DHT22;6909;52.202;9.876;2024-01-15T05:55:04;1.10;99.90
13673;DHT22;6909;52.202;9.876;2024-01-15T05:57:31;1.10;99.90
13673;DHT22;6909;52.202;9.876;2024-01-15T05:59:57;1.20;99.90
13673;DHT22;6909;52.202;9.876;2024-01-15T06:02:24;1.20;99.90
13673;DHT22;6909;52.202;9.876;2024-01-15T06:04:52;1.20;99.90
13673;DHT22;6909;52.202;9.876;2024-01-15T06:07:18;1.20;99.90
13673;DHT22;6909;52.202;9.876;2024-01-15T06:09:45;1.20;99.90
13673;DHT22;6909;52.202;9.876;2024-01-15T06:12:12;1.20;99.90
13673;DHT22;6909;52.202;9.876;2024-01-15T06:14:38;1.20;99.90
13673;DHT22;6909;52.202;9.876;2024-01-15T06:17:06;1.30;99.90
13673;DHT22;6909;52.202;9.876;2024-01-15T06:19:33;1.30;99.90
13673;DHT22;6909;52.202;9.876;2024-01-15T06:22:01;1.20;99.90
13673;DHT22;6909;52.202;9.876;2024-01-15T06:24:27;1.20;99.90
13673;DHT22;6909;52.202;9.876;2024-01-15T06:26:54;1.20;99.90
13673;DHT22;6909;52.202;9.876;2024-01-15T06:29:21;1.10;99.90
13673;DHT22;6909;52.202;9.876;2024-01-15T06:31:49;1.10;99.90
13673;DHT22;6909;52.202;9.876;2024-01-15T06:34:16;1.10;99.90
13673;DHT22;6909;52.202;9.876;2024-01-15T06:36:42;1.10;99.90
13673;DHT22;6909;52.202;9.876;2024-01-15T06:39:11;1.10;99.90
13673;DHT22;6909;52.202;9.876;2024-01-15T06:41:37;1.10;99.90
13673;DHT22;6909;52.202;9.876;2024-01-15T06:44:08;1.00;99.90
13673;DHT22;6909;52.202;9.876;2024-01-15T06:46:35;1.10;99.90
13673;DHT22;6909;52.202;9.876;2024-01-15T06:49:02;1.10;99.90
13673;DHT22;6909;52.202;9.876;2024-01-15T06:51:29;1.20;99.90
13673;DHT22;6909;52.202;9.876;2024-01-15T06:53:56;1.20;99.90
13673;DHT22;6909;52.202;9.876;2024-01-15T06:56:24;1.30;99.90
13673;DHT22;6909;52.202;9.876;2024-01-15T06:58:50;1.40;99.90
13673;DHT22;6909;52.202;9.876;2024-01-15T07:01:17;1.40;99.90
13673;DHT22;6909;52.202;9.876;2024-01-15T07:03:43;1.40;99.90
13673;DHT22;6909;52.202;9.876;2024-01-15T07:06:10;1.50;99.90
13673;DHT22;6909;52.202;9.876;2024-01-15T07:08:37;1.50;99.90
13673;DHT22;6909;52.202;9.876;2024-01-15T07:11:04;1.40;99.90
13673;DHT22;6909;52.202;9.876;2024-01-15T07:13:33;1.40;99.90
13673;DHT22;6909;52.202;9.876;2024-01-15T07:15:59;1.50;99.90
13673;DHT22;6909;52.202;9.876;2024-01-15T07:18:26;1.50;99.90
13673;DHT22;6909;52.202;9.876;2024-01-15T07:20:53;1.40;99.90
13673;DHT22;6909;52.202;9.876;2024-01-15T07:23:22;1.50;99.90
13673;DHT22;6909;52.202;9.876;2024-01-15T07:25:49;1.30;99.90
13673;DHT22;6909;52.202;9.876;2024-01-15T07:28:15;1.30;99.90
13673;DHT22;6909;52.202;9.876;2024-01-15T07:30:43;1.20;99.90
13673;DHT22;6909;52.202;9.876;2024-01-15T07:33:10;1.20;99.90
13673;DHT22;6909;52.202;9.876;2024-01-15T07:35:37;1.30;99.90
13673;DHT22;6909;52.202;9.876;2024-01-15T07:38:04;1.30;99.90
13673;DHT22;6909;52.202;9.876;2024-01-15T07:40:31;1.30;99.90
13673;DHT22;6909;52.202;9.876;2024-01-15T07:42:57;1.30;99.90
13673;DHT22;6909;52.202;9.876;2024-01-15T07:45:26;1.30;99.90
13673;DHT22;6909;52.202;9.876;2024-01-15T07:47:54;1.20;99.90
13673;DHT22;6909;52.202;9.876;2024-01-15T07:50:21;1.20;99.90
13673;DHT22;6909;52.202;9.876;2024-01-15T07:52:48;1.20;99.90
13673;DHT22;6909;52.202;9.876;2024-01-15T07:55:15;1.20;99.90
13673;DHT22;6909;52.202;9.876;2024-01-15T07:57:41;1.20;99.90
13673;DHT22;6909;52.202;9.876;2024-01-15T08:00:08;1.20;99.90
13673;DHT22;6909;52.202;9.876;2024-01-15T08:02:36;1.20;99.90
13673;DHT22;6909;52.202;9.876;2024-01-15T08:05:04;1.20;99.90
13673;DHT22;6909;52.202;9.876;2024-01-15T08:07:31;1.20;99.90
13673;DHT22;6909;52.202;9.876;2024-01-15T08:09:58;1.20;99.90
13673;DHT22;6909;52.202;9.876;2024-01-15T08:12:24;1.20;99.90
13673;DHT22;6909;52.202;9.876;2024-01-15T08:14:51;1.30;99.90
13673;DHT22;6909;52.202;9.876;2024-01-15T08:17:17;1.40;99.90
13673;DHT22;6909;52.202;9.876;2024-01-15T08:19:44;1.40;99.90
13673;DHT22;6909;52.202;9.876;2024-01-15T08:22:13;1.40;99.90
13673;DHT22;6909;52.202;9.876;2024-01-15T08:24:41;1.50;99.90
13673;DHT22;6909;52.202;9.876;2024-01-15T08:27:07;1.50;99.90
13673;DHT22;6909;52.202;9.876;2024-01-15T08:29:34;1.40;99.90
13673;DHT22;6909;52.202;9.876;2024-01-15T08:32:00;1.50;99.90
13673;DHT22;6909;52.202;9.876;2024-01-15T08:34:27;1.40;99.90
13673;DHT22;6909;52.202;9.876;2024-01-15T08:36:54;1.40;99.90
13673;DHT22;6909;52.202;9.876;2024-01-15T08:39:22;1.50;99.90
13673;DHT22;6909;52.202;9.876;2024-01-15T08:41:48;1.50;99.90
13673;DHT22;6909;52.202;9.876;2024-01-15T08:44:15;1.50;99.90
13673;DHT22;6909;52.202;9.876;2024-01-15T08:46:42;1.50;99.90
13673;DHT22;6909;52.202;9.876;2024-01-15T08:49:08;1.60;99.90
13673;DHT22;6909;52.202;9.876;2024-01-15T08:51:35;1.60;99.90
13673;DHT22;6909;52.202;9.876;2024-01-15T08:54:03;1.60;99.90
13673;DHT22;6909;52.202;9.876;2024-01-15T08:56:31;1.60;99.90
13673;DHT22;6909;52.202;9.876;2024-01-15T08:58:58;1.60;99.90
13673;DHT22;6909;52.202;9.876;2024-01-15T09:01:25;1.60;99.90
13673;DHT22;6909;52.202;9.876;2024-01-15T09:03:52;1.60;99.90
13673;DHT22;6909;52.202;9.876;2024-01-15T09:06:18;1.60;99.90
13673;DHT22;6909;52.202;9.876;2024-01-15T09:08:46;1.60;99.90
13673;DHT22;6909;52.202;9.876;2024-01-15T09:11:12;1.70;99.90
13673;DHT22;6909;52.202;9.876;2024-01-15T09:13:40;1.70;99.90
13673;DHT22;6909;52.202;9.876;2024-01-15T09:16:07;1.80;99.90
13673;DHT22;6909;52.202;9.876;2024-01-15T09:18:34;1.80;99.90
13673;DHT22;6909;52.202;9.876;2024-01-15T09:21:01;1.80;99.90
13673;DHT22;6909;52.202;9.876;2024-01-15T09:23:28;1.90;99.90
13673;DHT22;6909;52.202;9.876;2024-01-15T09:25:54;2.00;99.90
13673;DHT22;6909;52.202;9.876;2024-01-15T09:28:21;2.00;99.90
13673;DHT22;6909;52.202;9.876;2024-01-15T09:30:49;2.00;99.90
13673;DHT22;6909;52.202;9.876;2024-01-15T09:33:16;2.00;99.90
13673;DHT22;6909;52.202;9.876;2024-01-15T09:35:42;2.00;99.90
13673;DHT22;6909;52.202;9.876;2024-01-15T09:38:09;2.10;99.90
13673;DHT22;6909;52.202;9.876;2024-01-15T09:40:38;2.20;99.90
13673;DHT22;6909;52.202;9.876;2024-01-15T09:43:09;2.30;99.90
13673;DHT22;6909;52.202;9.876;2024-01-15T09:45:36;2.30;99.90
13673;DHT22;6909;52.202;9.876;2024-01-15T09:48:05;2.30;99.90
13673;DHT22;6909;52.202;9.876;2024-01-15T09:50:32;2.30;99.90
13673;DHT22;6909;52.202;9.876;2024-01-15T09:52:59;2.20;99.90
13673;DHT22;6909;52.202;9.876;2024-01-15T09:55:26;2.30;99.90
13673;DHT22;6909;52.202;9.876;2024-01-15T09:57:55;2.30;99.90
13673;DHT22;6909;52.202;9.876;2024-01-15T10:00:23;2.40;99.90
13673;DHT22;6909;52.202;9.876;2024-01-15T10:02:50;2.60;99.90
13673;DHT22;6909;52.202;9.876;2024-01-15T10:05:18;2.90;99.90
13673;DHT22;6909;52.202;9.876;2024-01-15T10:07:46;3.00;99.90
13673;DHT22;6909;52.202;9.876;2024-01-15T10:10:15;3.20;99.90
13673;DHT22;6909;52.202;9.876;2024-01-15T10:12:42;3.00;99.90
13673;DHT22;6909;52.202;9.876;2024-01-15T10:15:09;3.00;99.90
13673;DHT22;6909;52.202;9.876;2024-01-15T10:17:37;2.80;99.90
13673;DHT22;6909;52.202;9.876;2024-01-15T10:20:08;2.30;99.90
13673;DHT22;6909;52.202;9.876;2024-01-15T10:22:40;1.90;99.90
13673;DHT22;6909;52.202;9.876;2024-01-15T10:25:10;1.90;99.90
13673;DHT22;6909;52.202;9.876;2024-01-15T10:27:36;2.10;99.90
13673;DHT22;6909;52.202;9.876;2024-01-15T10:30:04;2.10;99.90
13673;DHT22;6909;52.202;9.876;2024-01-15T10:32:31;2.10;99.90
13673;DHT22;6909;52.202;9.876;2024-01-15T10:34:58;2.20;99.90
13673;DHT22;6909;52.202;9.876;2024-01-15T10:37:25;2.20;99.90
13673;DHT22;6909;52.202;9.876;2024-01-15T10:39:53;2.30;99.90
13673;DHT22;6909;52.202;9.876;2024-01-15T10:42:20;2.30;99.90
13673;DHT22;6909;52.202;9.876;2024-01-15T10:44:47;2.30;99.90
13673;DHT22;6909;52.202;9.876;2024-01-15T10:47:14;2.50;99.90
13673;DHT22;6909;52.202;9.876;2024-01-15T10:49:41;2.40;99.90
13673;DHT22;6909;52.202;9.876;2024-01-15T10:52:08;2.60;99.90
13673;DHT22;6909;52.202;9.876;2024-01-15T10:54:35;2.50;99.90
13673;DHT22;6909;52.202;9.876;2024-01-15T10:57:05;2.50;99.90
13673;DHT22;6909;52.202;9.876;2024-01-15T10:59:32;2.60;99.90
13673;DHT22;6909;52.202;9.876;2024-01-15T11:01:59;2.50;99.90
13673;DHT22;6909;52.202;9.876;2024-01-15T11:04:26;2.60;99.90
13673;DHT22;6909;52.202;9.876;2024-01-15T11:06:54;2.70;99.90
13673;DHT22;6909;52.202;9.876;2024-01-15T11:09:23;2.60;99.90
13673;DHT22;6909;52.202;9.876;2024-01-15T11:11:52;2.70;99.90
13673;DHT22;6909;52.202;9.876;2024-01-15T11:14:39;2.60;99.90
13673;DHT22;6909;52.202;9.876;2024-01-15T11:17:06;2.70;99.90
13673;DHT22;6909;52.202;9.876;2024-01-15T11:19:37;2.80;99.90
13673;DHT22;6909;52.202;9.876;2024-01-15T11:22:06;2.90;99.90
13673;DHT22;6909;52.202;9.876;2024-01-15T11:24:37;2.90;99.90
13673;DHT22;6909;52.202;9.876;2024-01-15T11:27:05;3.00;99.90
13673;DHT22;6909;52.202;9.876;2024-01-15T11:29:32;3.10;99.90
13673;DHT22;6909;52.202;9.876;2024-01-15T11:32:02;3.10;99.90
13673;DHT22;6909;52.202;9.876;2024-01-15T11:34:49;2.70;99.90
13673;DHT22;6909;52.202;9.876;2024-01-15T11:37:16;3.10;99.90
13673;DHT22;6909;52.202;9.876;2024-01-15T11:39:44;2.90;99.90
13673;DHT22;6909;52.202;9.876;2024-01-15T11:42:12;2.90;99.90
13673;DHT22;6909;52.202;9.876;2024-01-15T11:44:40;3.00;99.90
13673;DHT22;6909;52.202;9.876;2024-01-15T11:47:09;3.00;99.90
13673;DHT22;6909;52.202;9.876;2024-01-15T11:49:59;3.00;99.90
13673;DHT22;6909;52.202;9.876;2024-01-15T11:52:26;3.10;99.90
13673;DHT22;6909;52.202;9.876;2024-01-15T11:55:01;3.10;99.90
13673;DHT22;6909;52.202;9.876;2024-01-15T11:57:40;3.00;99.90
13673;DHT22;6909;52.202;9.876;2024-01-15T12:00:09;3.00;99.90
13673;DHT22;6909;52.202;9.876;2024-01-15T12:02:37;3.00;99.90
13673;DHT22;6909;52.202;9.876;2024-01-15T12:05:04;3.00;99.90
13673;DHT22;6909;52.202;9.876;2024-01-15T12:07:31;2.90;99.90
13673;DHT22;6909;52.202;9.876;2024-01-15T12:09:57;2.80;99.90
13673;DHT22;6909;52.202;9.876;2024-01-15T12:12:29;2.70;99.90
13673;DHT22;6909;52.202;9.876;2024-01-15T12:14:58;2.70;99.90
13673;DHT22;6909;52.202;9.876;2024-01-15T12:17:25;2.80;99.90
13673;DHT22;6909;52.202;9.876;2024-01-15T12:19:53;2.80;99.90
13673;DHT22;6909;52.202;9.876;2024-01-15T12:22:20;2.70;99.90
13673;DHT22;6909;52.202;9.876;2024-01-15T12:24:46;2.70;99.90
13673;DHT22;6909;52.202;9.876;2024-01-15T12:27:13;2.70;99.90
13673;DHT22;6909;52.202;9.876;2024-01-15T12:29:40;2.70;99.90
13673;DHT22;6909;52.202;9.876;2024-01-15T12:32:07;2.70;99.90
13673;DHT22;6909;52.202;9.876;2024-01-15T12:34:34;2.70;99.90
13673;DHT22;6909;52.202;9.876;2024-01-15T12:37:02;2.80;99.90
13673;DHT22;6909;52.202;9.876;2024-01-15T12:39:28;2.80;99.90
13673;DHT22;6909;52.202;9.876;2024-01-15T12:41:55;2.70;99.90
13673;DHT22;6909;52.202;9.876;2024-01-15T12:44:22;2.60;99.90
13673;DHT22;6909;52.202;9.876;2024-01-15T12:46:49;2.50;99.90
13673;DHT22;6909;52.202;9.876;2024-01-15T12:49:16;2.50;99.90
13673;DHT22;6909;52.202;9.876;2024-01-15T12:51:43;2.40;99.90
13673;DHT22;6909;52.202;9.876;2024-01-15T12:54:19;2.30;99.90
13673;DHT22;6909;52.202;9.876;2024-01-15T12:56:46;2.30;99.90
13673;DHT22;6909;52.202;9.876;2024-01-15T12:59:13;2.20;99.90
13673;DHT22;6909;52.202;9.876;2024-01-15T13:01:39;2.20;99.90
13673;DHT22;6909;52.202;9.876;2024-01-15T13:04:07;2.20;99.90
13673;DHT22;6909;52.202;9.876;2024-01-15T13:06:34;2.20;99.90
13673;DHT22;6909;52.202;9.876;2024-01-15T13:09:02;2.20;99.90
13673;DHT22;6909;52.202;9.876;2024-01-15T13:11:32;2.20;99.90
13673;DHT22;6909;52.202;9.876;2024-01-15T13:13:59;2.20;99.90
13673;DHT22;6909;52.202;9.876;2024-01-15T13:16:25;2.30;99.90
13673;DHT22;6909;52.202;9.876;2024-01-15T13:18:54;2.30;99.90
13673;DHT22;6909;52.202;9.876;2024-01-15T13:21:21;2.30;99.90
13673;DHT22;6909;52.202;9.876;2024-01-15T13:23:48;2.30;99.90
13673;DHT22;6909;52.202;9.876;2024-01-15T13:26:14;2.30;99.90
13673;DHT22;6909;52.202;9.876;2024-01-15T13:28:44;2.20;99.90
13673;DHT22;6909;52.202;9.876;2024-01-15T13:31:11;2.20;99.90
13673;DHT22;6909;52.202;9.876;2024-01-15T13:33:38;2.30;99.90
13673;DHT22;6909;52.202;9.876;2024-01-15T13:36:05;2.30;99.90
13673;DHT22;6909;52.202;9.876;2024-01-15T13:38:34;2.30;99.90
13673;DHT22;6909;52.202;9.876;2024-01-15T13:41:02;2.40;99.90
13673;DHT22;6909;52.202;9.876;2024-01-15T13:43:29;2.40;99.90
13673;DHT22;6909;52.202;9.876;2024-01-15T13:45:57;2.40;99.90
13673;DHT22;6909;52.202;9.876;2024-01-15T13:48:23;2.60;99.90
13673;DHT22;6909;52.202;9.876;2024-01-15T13:50:50;2.60;99.90
13673;DHT22;6909;52.202;9.876;2024-01-15T13:53:17;2.60;99.90
13673;DHT22;6909;52.202;9.876;2024-01-15T13:55:44;2.50;99.90
13673;DHT22;6909;52.202;9.876;2024-01-15T13:58:11;2.40;99.90
13673;DHT22;6909;52.202;9.876;2024-01-15T14:00:38;2.30;99.90
13673;DHT22;6909;52.202;9.876;2024-01-15T14:03:07;2.40;99.90
13673;DHT22;6909;52.202;9.876;2024-01-15T14:05:33;2.40;99.90
13673;DHT22;6909;52.202;9.876;2024-01-15T14:08:00;2.40;99.90
13673;DHT22;6909;52.202;9.876;2024-01-15T14:10:27;2.30;99.90
13673;DHT22;6909;52.202;9.876;2024-01-15T14:12:53;2.30;99.90
13673;DHT22;6909;52.202;9.876;2024-01-15T14:15:20;2.20;99.90
13673;DHT22;6909;52.202;9.876;2024-01-15T14:17:47;2.20;99.90
13673;DHT22;6909;52.202;9.876;2024-01-15T14:20:15;2.20;99.90
13673;DHT22;6909;52.202;9.876;2024-01-15T14:22:43;2.10;99.90
13673;DHT22;6909;52.202;9.876;2024-01-15T14:25:10;1.90;99.90
13673;DHT22;6909;52.202;9.876;2024-01-15T14:27:36;1.80;99.90
13673;DHT22;6909;52.202;9.876;2024-01-15T14:30:04;1.70;99.90
13673;DHT22;6909;52.202;9.876;2024-01-15T14:32:33;1.70;99.90
13673;DHT22;6909;52.202;9.876;2024-01-15T14:35:00;1.80;99.90
13673;DHT22;6909;52.202;9.876;2024-01-15T14:37:30;1.80;99.90
13673;DHT22;6909;52.202;9.876;2024-01-15T14:39:56;1.90;99.90
13673;DHT22;6909;52.202;9.876;2024-01-15T14:42:23;1.90;99.90
13673;DHT22;6909;52.202;9.876;2024-01-15T14:44:51;1.90;99.90
13673;DHT22;6909;52.202;9.876;2024-01-15T14:47:17;1.90;99.90
13673;DHT22;6909;52.202;9.876;2024-01-15T14:49:44;1.90;99.90
13673;DHT22;6909;52.202;9.876;2024-01-15T14:52:11;1.90;99.90
13673;DHT22;6909;52.202;9.876;2024-01-15T14:54:39;1.90;99.90
13673;DHT22;6909;52.202;9.876;2024-01-15T14:57:07;1.70;99.90
13673;DHT22;6909;52.202;9.876;2024-01-15T14:59:33;1.50;48.20
13673;DHT22;6909;52.202;9.876;2024-01-15T15:02:00;1.40;99.90
13673;DHT22;6909;52.202;9.876;2024-01-15T15:04:27;1.30;99.90
13673;DHT22;6909;52.202;9.876;2024-01-15T15:06:54;1.20;99.90
13673;DHT22;6909;52.202;9.876;2024-01-15T15:09:20;1.20;99.90
13673;DHT22;6909;52.202;9.876;2024-01-15T15:11:48;1.20;99.90
13673;DHT22;6909;52.202;9.876;2024-01-15T15:14:16;1.10;99.90
13673;DHT22;6909;52.202;9.876;2024-01-15T15:16:43;1.10;99.90
13673;DHT22;6909;52.202;9.876;2024-01-15T15:19:11;1.10;99.90
13673;DHT22;6909;52.202;9.876;2024-01-15T15:21:38;1.10;99.90
13673;DHT22;6909;52.202;9.876;2024-01-15T15:24:05;1.20;99.90
13673;DHT22;6909;52.202;9.876;2024-01-15T15:26:32;1.20;99.90
13673;DHT22;6909;52.202;9.876;2024-01-15T15:29:00;1.20;99.90
13673;DHT22;6909;52.202;9.876;2024-01-15T15:31:26;1.10;99.90
13673;DHT22;6909;52.202;9.876;2024-01-15T15:33:53;1.20;99.90
13673;DHT22;6909;52.202;9.876;2024-01-15T15:36:20;1.20;99.90
13673;DHT22;6909;52.202;9.876;2024-01-15T15:38:47;1.20;99.90
13673;DHT22;6909;52.202;9.876;2024-01-15T15:41:13;1.20;99.90
13673;DHT22;6909;52.202;9.876;2024-01-15T15:43:40;1.20;99.90
13673;DHT22;6909;52.202;9.876;2024-01-15T15:46:08;1.20;99.90
13673;DHT22;6909;52.202;9.876;2024-01-15T15:48:34;1.20;99.90
13673;DHT22;6909;52.202;9.876;2024-01-15T15:51:01;1.20;99.90
13673;DHT22;6909;52.202;9.876;2024-01-15T15:53:29;1.30;99.90
13673;DHT22;6909;52.202;9.876;2024-01-15T15:55:55;1.20;99.90
13673;DHT22;6909;52.202;9.876;2024-01-15T15:58:24;1.20;99.90
13673;DHT22;6909;52.202;9.876;2024-01-15T16:00:50;1.20;99.90
13673;DHT22;6909;52.202;9.876;2024-01-15T16:03:18;1.20;99.90
13673;DHT22;6909;52.202;9.876;2024-01-15T16:05:45;1.20;99.90